sensor_id;sensor_type;location;lat;lon;timestamp;P1;durP1;ratioP1;P2;durP2;ratioP2
76850;SDS011;65824;43.726;20.692;2023-03-24T00:02:03;42.83;;;23.13;;
76850;SDS011;65824;43.726;20.692;2023-03-24T00:04:31;35.85;;;20.00;;
76850;SDS011;65824;43.726;20.692;2023-03-24T00:06:56;36.65;;;19.52;;
76850;SDS011;65824;43.726;20.692;2023-03-24T00:09:26;33.83;;;19.67;;
76850;SDS011;65824;43.726;20.692;2023-03-24T00:11:54;31.80;;;18.55;;
76850;SDS011;65824;43.726;20.692;2023-03-24T00:14:20;35.15;;;19.33;;
76850;SDS011;65824;43.726;20.692;2023-03-24T00:16:47;35.45;;;19.10;;
76850;SDS011;65824;43.726;20.692;2023-03-24T00:19:14;32.92;;;18.70;;
76850;SDS011;65824;43.726;20.692;2023-03-24T00:21:40;29.02;;;15.20;;
76850;SDS011;65824;43.726;20.692;2023-03-24T00:24:06;18.98;;;11.20;;
76850;SDS011;65824;43.726;20.692;2023-03-24T00:26:33;15.95;;;9.40;;
76850;SDS011;65824;43.726;20.692;2023-03-24T00:29:02;15.13;;;8.07;;
76850;SDS011;65824;43.726;20.692;2023-03-24T00:31:29;14.48;;;7.97;;
76850;SDS011;65824;43.726;20.692;2023-03-24T00:33:55;16.27;;;9.18;;
76850;SDS011;65824;43.726;20.692;2023-03-24T00:36:22;24.73;;;14.10;;
76850;SDS011;65824;43.726;20.692;2023-03-24T00:38:49;32.83;;;19.67;;
76850;SDS011;65824;43.726;20.692;2023-03-24T00:41:15;39.35;;;22.60;;
76850;SDS011;65824;43.726;20.692;2023-03-24T00:43:43;38.75;;;22.15;;
76850;SDS011;65824;43.726;20.692;2023-03-24T00:46:11;47.85;;;24.45;;
76850;SDS011;65824;43.726;20.692;2023-03-24T00:51:40;42.75;;;22.67;;
76850;SDS011;65824;43.726;20.692;2023-03-24T00:54:07;41.03;;;21.92;;
76850;SDS011;65824;43.726;20.692;2023-03-24T00:56:38;46.53;;;24.75;;
76850;SDS011;65824;43.726;20.692;2023-03-24T01:01:33;48.30;;;24.65;;
76850;SDS011;65824;43.726;20.692;2023-03-24T01:04:00;34.13;;;18.67;;
76850;SDS011;65824;43.726;20.692;2023-03-24T01:06:26;24.67;;;14.68;;
76850;SDS011;65824;43.726;20.692;2023-03-24T01:08:51;22.40;;;12.50;;
76850;SDS011;65824;43.726;20.692;2023-03-24T01:11:19;17.75;;;11.18;;
76850;SDS011;65824;43.726;20.692;2023-03-24T01:16:14;17.65;;;9.68;;
76850;SDS011;65824;43.726;20.692;2023-03-24T01:18:40;17.35;;;10.10;;
76850;SDS011;65824;43.726;20.692;2023-03-24T01:21:09;16.83;;;10.07;;
76850;SDS011;65824;43.726;20.692;2023-03-24T01:23:36;18.35;;;11.07;;
76850;SDS011;65824;43.726;20.692;2023-03-24T01:26:03;26.13;;;13.25;;
76850;SDS011;65824;43.726;20.692;2023-03-24T01:28:31;30.35;;;15.50;;
76850;SDS011;65824;43.726;20.692;2023-03-24T01:30:57;39.40;;;21.45;;
76850;SDS011;65824;43.726;20.692;2023-03-24T01:33:24;40.20;;;20.92;;
76850;SDS011;65824;43.726;20.692;2023-03-24T01:35:50;41.10;;;22.42;;
76850;SDS011;65824;43.726;20.692;2023-03-24T01:38:16;36.92;;;20.58;;
76850;SDS011;65824;43.726;20.692;2023-03-24T01:40:43;46.75;;;21.85;;
76850;SDS011;65824;43.726;20.692;2023-03-24T01:43:19;34.75;;;20.25;;
76850;SDS011;65824;43.726;20.692;2023-03-24T01:48:20;35.38;;;19.52;;
76850;SDS011;65824;43.726;20.692;2023-03-24T01:50:53;38.25;;;18.63;;
76850;SDS011;65824;43.726;20.692;2023-03-24T01:53:33;34.65;;;18.67;;
76850;SDS011;65824;43.726;20.692;2023-03-24T01:56:02;38.78;;;19.35;;
76850;SDS011;65824;43.726;20.692;2023-03-24T01:58:32;30.88;;;17.70;;
76850;SDS011;65824;43.726;20.692;2023-03-24T02:00:58;36.88;;;17.40;;
76850;SDS011;65824;43.726;20.692;2023-03-24T02:03:25;34.92;;;18.00;;
76850;SDS011;65824;43.726;20.692;2023-03-24T02:05:51;39.05;;;20.55;;
76850;SDS011;65824;43.726;20.692;2023-03-24T02:10:47;52.03;;;27.73;;
76850;SDS011;65824;43.726;20.692;2023-03-24T02:13:13;53.13;;;27.27;;
76850;SDS011;65824;43.726;20.692;2023-03-24T02:15:52;50.63;;;25.42;;
76850;SDS011;65824;43.726;20.692;2023-03-24T02:18:26;39.80;;;21.35;;
76850;SDS011;65824;43.726;20.692;2023-03-24T02:45:59;38.08;;;21.40;;
76850;SDS011;65824;43.726;20.692;2023-03-24T02:48:54;41.75;;;20.95;;
76850;SDS011;65824;43.726;20.692;2023-03-24T02:51:25;48.63;;;22.50;;
76850;SDS011;65824;43.726;20.692;2023-03-24T03:02:13;39.53;;;20.60;;
76850;SDS011;65824;43.726;20.692;2023-03-24T03:04:45;43.78;;;21.55;;
76850;SDS011;65824;43.726;20.692;2023-03-24T03:07:17;41.95;;;20.77;;
76850;SDS011;65824;43.726;20.692;2023-03-24T03:09:56;46.50;;;23.05;;
76850;SDS011;65824;43.726;20.692;2023-03-24T03:12:43;39.80;;;20.52;;
76850;SDS011;65824;43.726;20.692;2023-03-24T03:15:13;33.95;;;18.48;;
76850;SDS011;65824;43.726;20.692;2023-03-24T03:17:42;39.30;;;20.40;;
76850;SDS011;65824;43.726;20.692;2023-03-24T03:20:17;39.53;;;21.42;;
76850;SDS011;65824;43.726;20.692;2023-03-24T03:22:49;38.78;;;18.73;;
76850;SDS011;65824;43.726;20.692;2023-03-24T03:25:29;34.33;;;18.65;;
76850;SDS011;65824;43.726;20.692;2023-03-24T03:27:58;39.00;;;19.88;;
76850;SDS011;65824;43.726;20.692;2023-03-24T03:30:27;34.20;;;18.70;;
76850;SDS011;65824;43.726;20.692;2023-03-24T03:32:57;35.92;;;18.60;;
76850;SDS011;65824;43.726;20.692;2023-03-24T03:38:38;32.58;;;18.60;;
76850;SDS011;65824;43.726;20.692;2023-03-24T03:43:24;34.88;;;18.05;;
76850;SDS011;65824;43.726;20.692;2023-03-24T03:45:50;32.00;;;17.55;;
76850;SDS011;65824;43.726;20.692;2023-03-24T03:48:16;28.88;;;18.65;;
76850;SDS011;65824;43.726;20.692;2023-03-24T03:50:42;32.67;;;17.75;;
76850;SDS011;65824;43.726;20.692;2023-03-24T03:53:08;31.92;;;17.90;;
76850;SDS011;65824;43.726;20.692;2023-03-24T03:55:33;35.17;;;18.88;;
76850;SDS011;65824;43.726;20.692;2023-03-24T03:58:00;31.48;;;17.05;;
76850;SDS011;65824;43.726;20.692;2023-03-24T04:00:26;32.00;;;17.30;;
76850;SDS011;65824;43.726;20.692;2023-03-24T04:11:31;35.53;;;18.15;;
76850;SDS011;65824;43.726;20.692;2023-03-24T04:27:45;36.88;;;18.70;;
76850;SDS011;65824;43.726;20.692;2023-03-24T04:32:58;29.42;;;15.02;;
76850;SDS011;65824;43.726;20.692;2023-03-24T04:35:34;26.83;;;13.80;;
76850;SDS011;65824;43.726;20.692;2023-03-24T04:38:06;24.13;;;13.80;;
76850;SDS011;65824;43.726;20.692;2023-03-24T04:40:35;23.70;;;13.30;;
76850;SDS011;65824;43.726;20.692;2023-03-24T04:43:02;28.67;;;14.18;;
76850;SDS011;65824;43.726;20.692;2023-03-24T04:45:28;33.50;;;15.10;;
76850;SDS011;65824;43.726;20.692;2023-03-24T04:47:57;26.05;;;14.73;;
76850;SDS011;65824;43.726;20.692;2023-03-24T04:50:41;30.80;;;15.13;;
76850;SDS011;65824;43.726;20.692;2023-03-24T04:53:08;32.55;;;16.00;;
76850;SDS011;65824;43.726;20.692;2023-03-24T04:55:38;29.80;;;15.02;;
76850;SDS011;65824;43.726;20.692;2023-03-24T05:00:37;29.20;;;15.88;;
76850;SDS011;65824;43.726;20.692;2023-03-24T05:03:03;33.28;;;15.73;;
76850;SDS011;65824;43.726;20.692;2023-03-24T05:05:29;30.42;;;16.50;;
76850;SDS011;65824;43.726;20.692;2023-03-24T05:07:56;31.08;;;16.85;;
76850;SDS011;65824;43.726;20.692;2023-03-24T05:10:22;29.20;;;16.42;;
76850;SDS011;65824;43.726;20.692;2023-03-24T05:12:48;27.60;;;16.17;;
76850;SDS011;65824;43.726;20.692;2023-03-24T05:15:13;33.15;;;16.60;;
76850;SDS011;65824;43.726;20.692;2023-03-24T05:17:39;31.73;;;17.42;;
76850;SDS011;65824;43.726;20.692;2023-03-24T05:20:05;38.78;;;19.02;;
76850;SDS011;65824;43.726;20.692;2023-03-24T05:22:35;35.60;;;15.52;;
76850;SDS011;65824;43.726;20.692;2023-03-24T05:25:03;30.85;;;15.30;;
76850;SDS011;65824;43.726;20.692;2023-03-24T05:27:29;30.30;;;16.40;;
76850;SDS011;65824;43.726;20.692;2023-03-24T05:29:55;31.27;;;16.60;;
76850;SDS011;65824;43.726;20.692;2023-03-24T05:32:20;30.08;;;17.17;;
76850;SDS011;65824;43.726;20.692;2023-03-24T05:34:46;28.85;;;16.23;;
76850;SDS011;65824;43.726;20.692;2023-03-24T05:37:11;27.63;;;15.05;;
76850;SDS011;65824;43.726;20.692;2023-03-24T05:39:38;29.90;;;16.52;;
76850;SDS011;65824;43.726;20.692;2023-03-24T05:42:06;32.33;;;16.67;;
76850;SDS011;65824;43.726;20.692;2023-03-24T05:44:32;29.83;;;16.35;;
76850;SDS011;65824;43.726;20.692;2023-03-24T05:46:57;30.95;;;16.48;;
76850;SDS011;65824;43.726;20.692;2023-03-24T05:49:23;28.50;;;16.35;;
76850;SDS011;65824;43.726;20.692;2023-03-24T05:51:51;39.53;;;17.92;;
76850;SDS011;65824;43.726;20.692;2023-03-24T05:54:16;39.42;;;19.90;;
76850;SDS011;65824;43.726;20.692;2023-03-24T05:56:42;35.83;;;17.20;;
76850;SDS011;65824;43.726;20.692;2023-03-24T05:59:07;37.20;;;17.65;;
76850;SDS011;65824;43.726;20.692;2023-03-24T06:01:35;32.28;;;16.48;;
76850;SDS011;65824;43.726;20.692;2023-03-24T06:04:00;40.45;;;20.88;;
76850;SDS011;65824;43.726;20.692;2023-03-24T06:06:26;48.45;;;22.67;;
76850;SDS011;65824;43.726;20.692;2023-03-24T06:08:54;44.33;;;23.00;;
76850;SDS011;65824;43.726;20.692;2023-03-24T06:11:20;37.00;;;19.67;;
76850;SDS011;65824;43.726;20.692;2023-03-24T06:13:45;36.30;;;18.25;;
76850;SDS011;65824;43.726;20.692;2023-03-24T06:16:11;31.45;;;18.95;;
76850;SDS011;65824;43.726;20.692;2023-03-24T06:18:36;33.67;;;20.08;;
76850;SDS011;65824;43.726;20.692;2023-03-24T06:21:06;37.42;;;21.27;;
76850;SDS011;65824;43.726;20.692;2023-03-24T06:23:32;32.92;;;20.77;;
76850;SDS011;65824;43.726;20.692;2023-03-24T06:26:06;27.25;;;17.38;;
76850;SDS011;65824;43.726;20.692;2023-03-24T06:28:33;36.58;;;23.02;;
76850;SDS011;65824;43.726;20.692;2023-03-24T06:30:59;30.80;;;18.90;;
76850;SDS011;65824;43.726;20.692;2023-03-24T06:33:24;29.10;;;18.67;;
76850;SDS011;65824;43.726;20.692;2023-03-24T06:35:53;30.52;;;19.67;;
76850;SDS011;65824;43.726;20.692;2023-03-24T06:38:18;32.33;;;21.17;;
76850;SDS011;65824;43.726;20.692;2023-03-24T06:40:44;32.83;;;19.17;;
76850;SDS011;65824;43.726;20.692;2023-03-24T06:43:10;26.85;;;16.85;;
76850;SDS011;65824;43.726;20.692;2023-03-24T06:45:36;29.85;;;19.63;;
76850;SDS011;65824;43.726;20.692;2023-03-24T06:48:03;31.48;;;19.00;;
76850;SDS011;65824;43.726;20.692;2023-03-24T06:50:28;31.55;;;18.92;;
76850;SDS011;65824;43.726;20.692;2023-03-24T06:52:58;29.80;;;18.95;;
76850;SDS011;65824;43.726;20.692;2023-03-24T06:55:25;28.92;;;17.73;;
76850;SDS011;65824;43.726;20.692;2023-03-24T06:57:51;27.35;;;17.00;;
76850;SDS011;65824;43.726;20.692;2023-03-24T07:00:16;29.83;;;18.88;;
76850;SDS011;65824;43.726;20.692;2023-03-24T07:02:43;29.15;;;17.40;;
76850;SDS011;65824;43.726;20.692;2023-03-24T07:05:10;32.85;;;18.45;;
76850;SDS011;65824;43.726;20.692;2023-03-24T07:07:36;29.40;;;17.67;;
76850;SDS011;65824;43.726;20.692;2023-03-24T07:10:05;30.35;;;17.98;;
76850;SDS011;65824;43.726;20.692;2023-03-24T07:12:33;32.88;;;18.98;;
76850;SDS011;65824;43.726;20.692;2023-03-24T07:14:59;26.67;;;17.73;;
76850;SDS011;65824;43.726;20.692;2023-03-24T07:17:27;26.52;;;16.70;;
76850;SDS011;65824;43.726;20.692;2023-03-24T07:19:54;27.77;;;17.55;;
76850;SDS011;65824;43.726;20.692;2023-03-24T07:22:20;26.45;;;17.30;;
76850;SDS011;65824;43.726;20.692;2023-03-24T07:24:45;30.25;;;17.50;;
76850;SDS011;65824;43.726;20.692;2023-03-24T07:27:11;30.67;;;17.48;;
76850;SDS011;65824;43.726;20.692;2023-03-24T07:29:37;29.55;;;16.90;;
76850;SDS011;65824;43.726;20.692;2023-03-24T07:32:04;27.85;;;17.55;;
76850;SDS011;65824;43.726;20.692;2023-03-24T07:34:32;23.60;;;15.85;;
76850;SDS011;65824;43.726;20.692;2023-03-24T07:36:59;22.92;;;15.27;;
76850;SDS011;65824;43.726;20.692;2023-03-24T07:39:27;23.25;;;15.82;;
76850;SDS011;65824;43.726;20.692;2023-03-24T07:41:53;29.92;;;16.98;;
76850;SDS011;65824;43.726;20.692;2023-03-24T07:44:19;21.45;;;15.20;;
76850;SDS011;65824;43.726;20.692;2023-03-24T07:46:46;21.52;;;13.55;;
76850;SDS011;65824;43.726;20.692;2023-03-24T07:49:11;21.55;;;14.85;;
76850;SDS011;65824;43.726;20.692;2023-03-24T07:51:36;23.92;;;14.73;;
76850;SDS011;65824;43.726;20.692;2023-03-24T07:54:02;21.35;;;13.35;;
76850;SDS011;65824;43.726;20.692;2023-03-24T07:56:28;18.00;;;12.18;;
76850;SDS011;65824;43.726;20.692;2023-03-24T07:58:54;21.88;;;13.07;;
76850;SDS011;65824;43.726;20.692;2023-03-24T08:01:20;21.08;;;13.18;;
76850;SDS011;65824;43.726;20.692;2023-03-24T08:03:47;20.10;;;12.48;;
76850;SDS011;65824;43.726;20.692;2023-03-24T08:06:13;17.75;;;11.73;;
76850;SDS011;65824;43.726;20.692;2023-03-24T08:08:39;16.60;;;11.77;;
76850;SDS011;65824;43.726;20.692;2023-03-24T08:11:05;21.50;;;12.98;;
76850;SDS011;65824;43.726;20.692;2023-03-24T08:13:31;23.13;;;13.43;;
76850;SDS011;65824;43.726;20.692;2023-03-24T08:15:58;17.38;;;12.60;;
76850;SDS011;65824;43.726;20.692;2023-03-24T08:18:23;21.73;;;13.27;;
76850;SDS011;65824;43.726;20.692;2023-03-24T08:20:49;17.90;;;12.85;;
76850;SDS011;65824;43.726;20.692;2023-03-24T08:23:22;18.33;;;13.27;;
76850;SDS011;65824;43.726;20.692;2023-03-24T08:25:54;18.67;;;12.68;;
76850;SDS011;65824;43.726;20.692;2023-03-24T08:28:20;18.17;;;11.98;;
76850;SDS011;65824;43.726;20.692;2023-03-24T08:30:45;19.85;;;13.55;;
76850;SDS011;65824;43.726;20.692;2023-03-24T08:33:12;20.30;;;13.43;;
76850;SDS011;65824;43.726;20.692;2023-03-24T08:35:38;18.33;;;12.45;;
76850;SDS011;65824;43.726;20.692;2023-03-24T08:38:05;19.67;;;12.60;;
76850;SDS011;65824;43.726;20.692;2023-03-24T08:40:32;19.80;;;12.48;;
76850;SDS011;65824;43.726;20.692;2023-03-24T08:43:00;17.23;;;11.82;;
76850;SDS011;65824;43.726;20.692;2023-03-24T08:45:28;18.25;;;12.10;;
76850;SDS011;65824;43.726;20.692;2023-03-24T08:47:54;18.75;;;11.35;;
76850;SDS011;65824;43.726;20.692;2023-03-24T08:50:23;17.38;;;11.18;;
76850;SDS011;65824;43.726;20.692;2023-03-24T08:52:53;16.05;;;11.23;;
76850;SDS011;65824;43.726;20.692;2023-03-24T08:55:21;18.85;;;11.55;;
76850;SDS011;65824;43.726;20.692;2023-03-24T08:57:51;16.58;;;10.63;;
76850;SDS011;65824;43.726;20.692;2023-03-24T09:00:17;18.48;;;11.15;;
76850;SDS011;65824;43.726;20.692;2023-03-24T09:02:46;16.33;;;11.07;;
76850;SDS011;65824;43.726;20.692;2023-03-24T09:05:14;16.95;;;12.20;;
76850;SDS011;65824;43.726;20.692;2023-03-24T09:07:40;17.63;;;11.18;;
76850;SDS011;65824;43.726;20.692;2023-03-24T09:10:06;18.35;;;11.85;;
76850;SDS011;65824;43.726;20.692;2023-03-24T09:12:34;17.20;;;11.15;;
76850;SDS011;65824;43.726;20.692;2023-03-24T09:15:00;16.98;;;11.38;;
76850;SDS011;65824;43.726;20.692;2023-03-24T09:17:25;16.20;;;11.30;;
76850;SDS011;65824;43.726;20.692;2023-03-24T09:19:51;16.83;;;10.30;;
76850;SDS011;65824;43.726;20.692;2023-03-24T09:22:19;17.20;;;11.38;;
76850;SDS011;65824;43.726;20.692;2023-03-24T09:24:45;17.52;;;11.43;;
76850;SDS011;65824;43.726;20.692;2023-03-24T09:27:22;14.65;;;10.30;;
76850;SDS011;65824;43.726;20.692;2023-03-24T09:30:20;18.42;;;11.38;;
76850;SDS011;65824;43.726;20.692;2023-03-24T09:32:54;17.45;;;11.48;;
76850;SDS011;65824;43.726;20.692;2023-03-24T09:35:23;17.90;;;11.68;;
76850;SDS011;65824;43.726;20.692;2023-03-24T09:37:53;18.25;;;11.40;;
76850;SDS011;65824;43.726;20.692;2023-03-24T09:40:24;22.45;;;12.48;;
76850;SDS011;65824;43.726;20.692;2023-03-24T09:42:54;22.73;;;14.07;;
76850;SDS011;65824;43.726;20.692;2023-03-24T09:45:26;21.52;;;11.55;;
76850;SDS011;65824;43.726;20.692;2023-03-24T09:47:59;18.20;;;10.55;;
76850;SDS011;65824;43.726;20.692;2023-03-24T09:52:59;15.73;;;10.95;;
76850;SDS011;65824;43.726;20.692;2023-03-24T09:55:28;15.77;;;9.70;;
76850;SDS011;65824;43.726;20.692;2023-03-24T09:57:55;18.27;;;9.35;;
76850;SDS011;65824;43.726;20.692;2023-03-24T10:00:28;14.32;;;9.30;;
76850;SDS011;65824;43.726;20.692;2023-03-24T10:03:00;15.88;;;8.82;;
76850;SDS011;65824;43.726;20.692;2023-03-24T10:10:56;13.93;;;8.55;;
76850;SDS011;65824;43.726;20.692;2023-03-24T10:14:12;11.80;;;7.97;;
76850;SDS011;65824;43.726;20.692;2023-03-24T10:16:20;13.73;;;7.82;;
76850;SDS011;65824;43.726;20.692;2023-03-24T10:18:51;10.65;;;7.13;;
76850;SDS011;65824;43.726;20.692;2023-03-24T10:21:26;14.85;;;8.43;;
76850;SDS011;65824;43.726;20.692;2023-03-24T10:31:30;12.27;;;7.78;;
76850;SDS011;65824;43.726;20.692;2023-03-24T10:33:57;13.45;;;7.38;;
76850;SDS011;65824;43.726;20.692;2023-03-24T10:36:23;11.32;;;7.03;;
76850;SDS011;65824;43.726;20.692;2023-03-24T10:38:49;13.65;;;7.45;;
76850;SDS011;65824;43.726;20.692;2023-03-24T10:41:22;10.98;;;6.53;;
76850;SDS011;65824;43.726;20.692;2023-03-24T10:43:50;12.02;;;7.00;;
76850;SDS011;65824;43.726;20.692;2023-03-24T10:46:20;10.20;;;6.35;;
76850;SDS011;65824;43.726;20.692;2023-03-24T10:48:48;11.50;;;5.97;;
76850;SDS011;65824;43.726;20.692;2023-03-24T10:51:16;9.88;;;6.00;;
76850;SDS011;65824;43.726;20.692;2023-03-24T10:54:08;9.70;;;5.63;;
76850;SDS011;65824;43.726;20.692;2023-03-24T10:59:18;9.05;;;5.22;;
76850;SDS011;65824;43.726;20.692;2023-03-24T11:01:45;12.10;;;6.03;;
76850;SDS011;65824;43.726;20.692;2023-03-24T11:04:13;12.32;;;5.25;;
76850;SDS011;65824;43.726;20.692;2023-03-24T11:06:51;7.85;;;4.70;;
76850;SDS011;65824;43.726;20.692;2023-03-24T11:09:24;8.07;;;5.10;;
76850;SDS011;65824;43.726;20.692;2023-03-24T11:11:53;10.10;;;4.22;;
76850;SDS011;65824;43.726;20.692;2023-03-24T11:14:23;8.25;;;4.72;;
76850;SDS011;65824;43.726;20.692;2023-03-24T11:16:52;6.35;;;3.90;;
76850;SDS011;65824;43.726;20.692;2023-03-24T11:19:27;6.15;;;3.30;;
76850;SDS011;65824;43.726;20.692;2023-03-24T11:21:56;9.63;;;4.13;;
76850;SDS011;65824;43.726;20.692;2023-03-24T11:24:28;5.30;;;2.55;;
76850;SDS011;65824;43.726;20.692;2023-03-24T11:26:58;4.95;;;3.10;;
76850;SDS011;65824;43.726;20.692;2023-03-24T11:29:25;6.10;;;3.05;;
76850;SDS011;65824;43.726;20.692;2023-03-24T11:31:55;7.10;;;3.70;;
76850;SDS011;65824;43.726;20.692;2023-03-24T11:34:23;7.07;;;3.50;;
76850;SDS011;65824;43.726;20.692;2023-03-24T11:36:56;3.90;;;2.15;;
76850;SDS011;65824;43.726;20.692;2023-03-24T11:39:25;4.78;;;2.50;;
76850;SDS011;65824;43.726;20.692;2023-03-24T11:44:50;3.65;;;2.22;;
76850;SDS011;65824;43.726;20.692;2023-03-24T11:50:00;3.78;;;2.25;;
76850;SDS011;65824;43.726;20.692;2023-03-24T11:52:58;4.82;;;2.63;;
76850;SDS011;65824;43.726;20.692;2023-03-24T12:06:18;5.80;;;3.08;;
76850;SDS011;65824;43.726;20.692;2023-03-24T12:14:35;5.50;;;3.13;;
76850;SDS011;65824;43.726;20.692;2023-03-24T12:17:13;7.30;;;3.28;;
76850;SDS011;65824;43.726;20.692;2023-03-24T12:22:42;5.55;;;3.17;;
76850;SDS011;65824;43.726;20.692;2023-03-24T12:28:46;6.68;;;3.38;;
76850;SDS011;65824;43.726;20.692;2023-03-24T12:36:58;5.85;;;3.10;;
76850;SDS011;65824;43.726;20.692;2023-03-24T12:39:33;6.07;;;3.08;;
76850;SDS011;65824;43.726;20.692;2023-03-24T12:58:13;6.45;;;3.10;;
76850;SDS011;65824;43.726;20.692;2023-03-24T13:01:15;7.20;;;3.35;;
76850;SDS011;65824;43.726;20.692;2023-03-24T13:04:05;12.18;;;4.28;;
76850;SDS011;65824;43.726;20.692;2023-03-24T13:12:03;8.02;;;4.40;;
76850;SDS011;65824;43.726;20.692;2023-03-24T13:18:10;7.72;;;4.25;;
76850;SDS011;65824;43.726;20.692;2023-03-24T13:20:48;6.57;;;3.90;;
76850;SDS011;65824;43.726;20.692;2023-03-24T13:23:24;8.02;;;3.60;;
76850;SDS011;65824;43.726;20.692;2023-03-24T13:26:16;6.95;;;4.30;;
76850;SDS011;65824;43.726;20.692;2023-03-24T13:28:53;8.63;;;3.88;;
76850;SDS011;65824;43.726;20.692;2023-03-24T13:31:30;5.80;;;3.40;;
76850;SDS011;65824;43.726;20.692;2023-03-24T13:34:01;6.93;;;3.78;;
76850;SDS011;65824;43.726;20.692;2023-03-24T13:39:13;8.65;;;4.20;;
76850;SDS011;65824;43.726;20.692;2023-03-24T13:41:43;7.43;;;3.80;;
76850;SDS011;65824;43.726;20.692;2023-03-24T13:44:18;5.78;;;3.63;;
76850;SDS011;65824;43.726;20.692;2023-03-24T13:49:52;7.03;;;3.75;;
76850;SDS011;65824;43.726;20.692;2023-03-24T13:52:27;6.35;;;3.75;;
76850;SDS011;65824;43.726;20.692;2023-03-24T13:54:58;7.20;;;3.67;;
76850;SDS011;65824;43.726;20.692;2023-03-24T13:57:24;6.95;;;3.70;;
76850;SDS011;65824;43.726;20.692;2023-03-24T13:59:58;11.57;;;5.28;;
76850;SDS011;65824;43.726;20.692;2023-03-24T14:02:42;10.05;;;4.68;;
76850;SDS011;65824;43.726;20.692;2023-03-24T14:13:34;9.23;;;4.18;;
76850;SDS011;65824;43.726;20.692;2023-03-24T14:16:41;6.55;;;3.85;;
76850;SDS011;65824;43.726;20.692;2023-03-24T14:21:41;7.90;;;4.10;;
76850;SDS011;65824;43.726;20.692;2023-03-24T14:24:27;8.38;;;3.95;;
76850;SDS011;65824;43.726;20.692;2023-03-24T14:26:56;6.75;;;3.10;;
76850;SDS011;65824;43.726;20.692;2023-03-24T14:29:35;7.30;;;3.30;;
76850;SDS011;65824;43.726;20.692;2023-03-24T14:32:17;7.70;;;3.38;;
76850;SDS011;65824;43.726;20.692;2023-03-24T14:34:55;5.40;;;3.10;;
76850;SDS011;65824;43.726;20.692;2023-03-24T14:37:22;5.10;;;3.20;;
76850;SDS011;65824;43.726;20.692;2023-03-24T14:39:50;5.70;;;3.17;;
76850;SDS011;65824;43.726;20.692;2023-03-24T14:45:04;5.40;;;3.50;;
76850;SDS011;65824;43.726;20.692;2023-03-24T14:47:50;6.07;;;3.10;;
76850;SDS011;65824;43.726;20.692;2023-03-24T14:50:28;7.82;;;3.30;;
76850;SDS011;65824;43.726;20.692;2023-03-24T14:52:54;6.80;;;3.63;;
76850;SDS011;65824;43.726;20.692;2023-03-24T14:55:22;7.70;;;3.58;;
76850;SDS011;65824;43.726;20.692;2023-03-24T14:57:53;6.13;;;3.63;;
76850;SDS011;65824;43.726;20.692;2023-03-24T15:05:51;7.70;;;3.97;;
76850;SDS011;65824;43.726;20.692;2023-03-24T15:08:20;5.55;;;3.33;;
76850;SDS011;65824;43.726;20.692;2023-03-24T15:16:14;5.90;;;3.20;;
76850;SDS011;65824;43.726;20.692;2023-03-24T15:18:44;5.28;;;3.38;;
76850;SDS011;65824;43.726;20.692;2023-03-24T15:21:37;8.05;;;3.58;;
76850;SDS011;65824;43.726;20.692;2023-03-24T15:26:47;6.13;;;3.33;;
76850;SDS011;65824;43.726;20.692;2023-03-24T15:29:16;7.47;;;4.15;;
76850;SDS011;65824;43.726;20.692;2023-03-24T15:31:42;7.55;;;3.45;;
76850;SDS011;65824;43.726;20.692;2023-03-24T15:34:24;5.63;;;3.50;;
76850;SDS011;65824;43.726;20.692;2023-03-24T15:36:57;7.50;;;3.45;;
76850;SDS011;65824;43.726;20.692;2023-03-24T15:39:37;6.00;;;4.10;;
76850;SDS011;65824;43.726;20.692;2023-03-24T15:42:04;7.28;;;4.13;;
76850;SDS011;65824;43.726;20.692;2023-03-24T15:44:38;6.72;;;3.83;;
76850;SDS011;65824;43.726;20.692;2023-03-24T15:47:05;7.13;;;3.83;;
76850;SDS011;65824;43.726;20.692;2023-03-24T15:49:49;6.18;;;3.97;;
76850;SDS011;65824;43.726;20.692;2023-03-24T15:52:46;7.10;;;3.78;;
76850;SDS011;65824;43.726;20.692;2023-03-24T15:55:29;7.40;;;4.22;;
76850;SDS011;65824;43.726;20.692;2023-03-24T15:58:01;7.55;;;4.60;;
76850;SDS011;65824;43.726;20.692;2023-03-24T16:00:45;8.68;;;4.53;;
76850;SDS011;65824;43.726;20.692;2023-03-24T16:03:11;8.75;;;4.18;;
76850;SDS011;65824;43.726;20.692;2023-03-24T16:05:44;10.40;;;4.43;;
76850;SDS011;65824;43.726;20.692;2023-03-24T16:10:56;9.38;;;4.30;;
76850;SDS011;65824;43.726;20.692;2023-03-24T16:13:35;7.93;;;3.72;;
76850;SDS011;65824;43.726;20.692;2023-03-24T16:18:45;9.70;;;5.28;;
76850;SDS011;65824;43.726;20.692;2023-03-24T16:21:19;13.50;;;6.55;;
76850;SDS011;65824;43.726;20.692;2023-03-24T16:24:03;12.55;;;7.05;;
76850;SDS011;65824;43.726;20.692;2023-03-24T16:26:45;15.05;;;6.95;;
76850;SDS011;65824;43.726;20.692;2023-03-24T16:29:15;12.48;;;7.85;;
76850;SDS011;65824;43.726;20.692;2023-03-24T16:31:42;14.80;;;7.60;;
76850;SDS011;65824;43.726;20.692;2023-03-24T16:34:17;15.40;;;7.35;;
76850;SDS011;65824;43.726;20.692;2023-03-24T16:36:43;19.05;;;7.80;;
76850;SDS011;65824;43.726;20.692;2023-03-24T16:39:14;13.05;;;7.55;;
76850;SDS011;65824;43.726;20.692;2023-03-24T16:41:41;13.82;;;7.38;;
76850;SDS011;65824;43.726;20.692;2023-03-24T16:44:10;17.75;;;8.00;;
76850;SDS011;65824;43.726;20.692;2023-03-24T16:46:37;15.55;;;7.75;;
76850;SDS011;65824;43.726;20.692;2023-03-24T16:49:05;18.08;;;7.90;;
76850;SDS011;65824;43.726;20.692;2023-03-24T16:51:31;12.77;;;7.32;;
76850;SDS011;65824;43.726;20.692;2023-03-24T16:53:57;12.90;;;7.20;;
76850;SDS011;65824;43.726;20.692;2023-03-24T16:56:23;12.70;;;7.75;;
76850;SDS011;65824;43.726;20.692;2023-03-24T16:58:48;16.42;;;7.65;;
76850;SDS011;65824;43.726;20.692;2023-03-24T17:04:06;20.83;;;10.20;;
76850;SDS011;65824;43.726;20.692;2023-03-24T17:06:35;16.63;;;8.88;;
76850;SDS011;65824;43.726;20.692;2023-03-24T17:09:02;16.77;;;8.95;;
76850;SDS011;65824;43.726;20.692;2023-03-24T17:11:33;22.77;;;10.15;;
76850;SDS011;65824;43.726;20.692;2023-03-24T17:14:07;15.77;;;9.50;;
76850;SDS011;65824;43.726;20.692;2023-03-24T17:16:36;18.55;;;9.75;;
76850;SDS011;65824;43.726;20.692;2023-03-24T17:19:03;19.85;;;9.60;;
76850;SDS011;65824;43.726;20.692;2023-03-24T17:21:29;22.13;;;11.15;;
76850;SDS011;65824;43.726;20.692;2023-03-24T17:23:57;26.73;;;12.50;;
76850;SDS011;65824;43.726;20.692;2023-03-24T17:26:22;23.00;;;13.00;;
76850;SDS011;65824;43.726;20.692;2023-03-24T17:28:48;27.58;;;14.15;;
76850;SDS011;65824;43.726;20.692;2023-03-24T17:31:13;28.65;;;16.25;;
76850;SDS011;65824;43.726;20.692;2023-03-24T17:33:39;21.35;;;13.00;;
76850;SDS011;65824;43.726;20.692;2023-03-24T17:36:05;29.55;;;14.43;;
76850;SDS011;65824;43.726;20.692;2023-03-24T17:38:31;30.10;;;14.57;;
76850;SDS011;65824;43.726;20.692;2023-03-24T17:40:57;27.63;;;15.40;;
76850;SDS011;65824;43.726;20.692;2023-03-24T17:43:27;28.45;;;15.82;;
76850;SDS011;65824;43.726;20.692;2023-03-24T17:45:57;26.30;;;15.05;;
76850;SDS011;65824;43.726;20.692;2023-03-24T17:48:25;28.73;;;16.83;;
76850;SDS011;65824;43.726;20.692;2023-03-24T17:50:51;30.10;;;17.30;;